Main page
METAR-TAF:

METAR-TAF

Airports :

Ouagadougou Airport

Ouagadougou, Burkina Faso

latitude: 12-21N, longitude: 001-31W, elevation: 316 m

Current weather observation

The report was made 53 minutes ago, at 04:00 UTC
Wind 2 kt from the North/Northwest
Temperature 25°C
Humidity 57%
Pressure 1012 hPa
Visibility: 8000 m

METAR: DFFD 210400Z 34002KT 8000 NSC 25/16 Q1012 NOSIG

Time: 04:53 (04:53 UTC)

Forecast

The report was made 5 hours and 53 minutes ago, at 23:00 UTC
Forecast valid from 21 at 00 UTC to 22 at 06 UTC
Wind 8 kt from the North/Northeast
Visibility: 6000 m
Becoming
from 21 at 04 UTC to 21 at 06 UTC
Visibility: 4000 m
widespread dust

TAF: DFFD 202300Z 2100/2206 02008KT 6000 NSC BECMG 2104/2106 4000 DU

Weather observations and forecasts of more than 4000 airports (METAR and TAF reports).

The available stations are represented by yellow and red dots on the map.

Hover mouse over dot to see the name of the station.

Then click to see weather observations and forecasts.

To change the map : click on the green buttons with a black cross to zoom in, on the green button with a dash to zoom out, or on the green arrows for adjacent maps.


METAR-TAF: